sensor_id;sensor_type;location;lat;lon;timestamp;P1;durP1;ratioP1;P2;durP2;ratioP2
21878;SDS011;27908;42.708;23.278;2023-06-22T00:01:04;21.27;;;12.80;;
21878;SDS011;27908;42.708;23.278;2023-06-22T00:03:30;19.07;;;12.57;;
21878;SDS011;27908;42.708;23.278;2023-06-22T00:05:55;21.77;;;12.48;;
21878;SDS011;27908;42.708;23.278;2023-06-22T00:08:21;20.88;;;13.07;;
21878;SDS011;27908;42.708;23.278;2023-06-22T00:10:47;21.17;;;12.83;;
21878;SDS011;27908;42.708;23.278;2023-06-22T00:13:12;22.30;;;13.23;;
21878;SDS011;27908;42.708;23.278;2023-06-22T00:15:39;20.70;;;12.43;;
21878;SDS011;27908;42.708;23.278;2023-06-22T00:18:06;19.85;;;12.63;;
21878;SDS011;27908;42.708;23.278;2023-06-22T00:20:33;21.98;;;13.68;;
21878;SDS011;27908;42.708;23.278;2023-06-22T00:23:02;21.70;;;13.13;;
21878;SDS011;27908;42.708;23.278;2023-06-22T00:25:32;21.60;;;13.55;;
21878;SDS011;27908;42.708;23.278;2023-06-22T00:27:58;21.50;;;12.70;;
21878;SDS011;27908;42.708;23.278;2023-06-22T00:30:24;22.67;;;13.80;;
21878;SDS011;27908;42.708;23.278;2023-06-22T00:32:49;22.92;;;13.45;;
21878;SDS011;27908;42.708;23.278;2023-06-22T00:35:14;22.83;;;13.57;;
21878;SDS011;27908;42.708;23.278;2023-06-22T00:37:40;20.77;;;13.40;;
21878;SDS011;27908;42.708;23.278;2023-06-22T00:40:07;22.60;;;13.93;;
21878;SDS011;27908;42.708;23.278;2023-06-22T00:42:39;21.85;;;13.40;;
21878;SDS011;27908;42.708;23.278;2023-06-22T00:45:06;21.85;;;13.82;;
21878;SDS011;27908;42.708;23.278;2023-06-22T00:47:32;22.20;;;14.47;;
21878;SDS011;27908;42.708;23.278;2023-06-22T00:49:59;26.30;;;15.27;;
21878;SDS011;27908;42.708;23.278;2023-06-22T00:52:25;25.30;;;15.27;;
21878;SDS011;27908;42.708;23.278;2023-06-22T00:54:54;27.75;;;16.52;;
21878;SDS011;27908;42.708;23.278;2023-06-22T00:57:23;24.27;;;15.50;;
21878;SDS011;27908;42.708;23.278;2023-06-22T00:59:53;27.65;;;16.70;;
21878;SDS011;27908;42.708;23.278;2023-06-22T01:02:19;26.20;;;16.33;;
21878;SDS011;27908;42.708;23.278;2023-06-22T01:04:44;26.40;;;16.00;;
21878;SDS011;27908;42.708;23.278;2023-06-22T01:07:12;26.00;;;15.30;;
21878;SDS011;27908;42.708;23.278;2023-06-22T01:13:02;23.87;;;15.53;;
21878;SDS011;27908;42.708;23.278;2023-06-22T01:18:02;23.60;;;14.77;;
21878;SDS011;27908;42.708;23.278;2023-06-22T01:20:29;25.52;;;14.48;;
21878;SDS011;27908;42.708;23.278;2023-06-22T01:23:15;23.33;;;14.02;;
21878;SDS011;27908;42.708;23.278;2023-06-22T01:26:08;23.80;;;14.23;;
21878;SDS011;27908;42.708;23.278;2023-06-22T01:28:45;24.10;;;13.00;;
21878;SDS011;27908;42.708;23.278;2023-06-22T01:31:13;26.23;;;14.05;;
21878;SDS011;27908;42.708;23.278;2023-06-22T01:33:45;21.48;;;13.15;;
21878;SDS011;27908;42.708;23.278;2023-06-22T01:36:14;21.85;;;13.07;;
21878;SDS011;27908;42.708;23.278;2023-06-22T01:38:43;18.97;;;12.37;;
21878;SDS011;27908;42.708;23.278;2023-06-22T01:41:10;20.98;;;12.82;;
21878;SDS011;27908;42.708;23.278;2023-06-22T01:43:37;21.83;;;14.15;;
21878;SDS011;27908;42.708;23.278;2023-06-22T01:46:03;19.65;;;12.55;;
21878;SDS011;27908;42.708;23.278;2023-06-22T01:48:29;22.40;;;13.17;;
21878;SDS011;27908;42.708;23.278;2023-06-22T01:50:56;21.63;;;13.90;;
21878;SDS011;27908;42.708;23.278;2023-06-22T01:53:22;20.35;;;12.38;;
21878;SDS011;27908;42.708;23.278;2023-06-22T01:55:48;23.93;;;14.03;;
21878;SDS011;27908;42.708;23.278;2023-06-22T01:58:14;19.70;;;12.40;;
21878;SDS011;27908;42.708;23.278;2023-06-22T02:00:40;22.17;;;13.38;;
21878;SDS011;27908;42.708;23.278;2023-06-22T02:03:13;21.92;;;13.05;;
21878;SDS011;27908;42.708;23.278;2023-06-22T02:05:43;22.40;;;13.43;;
21878;SDS011;27908;42.708;23.278;2023-06-22T02:11:09;21.10;;;13.45;;
21878;SDS011;27908;42.708;23.278;2023-06-22T02:13:37;22.92;;;13.15;;
21878;SDS011;27908;42.708;23.278;2023-06-22T02:16:07;22.08;;;13.00;;
21878;SDS011;27908;42.708;23.278;2023-06-22T02:18:35;21.07;;;12.53;;
21878;SDS011;27908;42.708;23.278;2023-06-22T02:21:01;22.02;;;12.55;;
21878;SDS011;27908;42.708;23.278;2023-06-22T02:23:26;20.57;;;12.97;;
21878;SDS011;27908;42.708;23.278;2023-06-22T02:25:52;20.97;;;12.70;;
21878;SDS011;27908;42.708;23.278;2023-06-22T02:28:17;23.37;;;12.90;;
21878;SDS011;27908;42.708;23.278;2023-06-22T02:30:43;21.10;;;12.30;;
21878;SDS011;27908;42.708;23.278;2023-06-22T02:33:08;19.93;;;12.30;;
21878;SDS011;27908;42.708;23.278;2023-06-22T02:35:34;20.60;;;12.32;;
21878;SDS011;27908;42.708;23.278;2023-06-22T02:38:01;21.98;;;12.98;;
21878;SDS011;27908;42.708;23.278;2023-06-22T02:40:30;19.50;;;12.37;;
21878;SDS011;27908;42.708;23.278;2023-06-22T02:42:57;20.10;;;12.27;;
21878;SDS011;27908;42.708;23.278;2023-06-22T02:45:26;19.25;;;11.90;;
21878;SDS011;27908;42.708;23.278;2023-06-22T02:47:52;23.30;;;12.43;;
21878;SDS011;27908;42.708;23.278;2023-06-22T02:50:17;24.70;;;11.90;;
21878;SDS011;27908;42.708;23.278;2023-06-22T02:52:43;19.95;;;11.57;;
21878;SDS011;27908;42.708;23.278;2023-06-22T02:55:08;21.13;;;11.33;;
21878;SDS011;27908;42.708;23.278;2023-06-22T02:57:34;20.40;;;11.97;;
21878;SDS011;27908;42.708;23.278;2023-06-22T02:59:59;20.58;;;12.00;;
21878;SDS011;27908;42.708;23.278;2023-06-22T03:02:25;19.70;;;12.30;;
21878;SDS011;27908;42.708;23.278;2023-06-22T03:04:51;19.27;;;11.02;;
21878;SDS011;27908;42.708;23.278;2023-06-22T03:07:18;18.85;;;11.45;;
21878;SDS011;27908;42.708;23.278;2023-06-22T03:09:44;17.77;;;10.43;;
21878;SDS011;27908;42.708;23.278;2023-06-22T03:12:10;21.45;;;10.80;;
21878;SDS011;27908;42.708;23.278;2023-06-22T03:14:35;17.67;;;10.80;;
21878;SDS011;27908;42.708;23.278;2023-06-22T03:17:01;18.73;;;11.55;;
21878;SDS011;27908;42.708;23.278;2023-06-22T03:19:28;17.73;;;11.15;;
21878;SDS011;27908;42.708;23.278;2023-06-22T03:21:56;19.70;;;11.73;;
21878;SDS011;27908;42.708;23.278;2023-06-22T03:24:25;25.60;;;11.68;;
21878;SDS011;27908;42.708;23.278;2023-06-22T03:26:50;18.17;;;11.23;;
21878;SDS011;27908;42.708;23.278;2023-06-22T03:29:16;20.65;;;11.38;;
21878;SDS011;27908;42.708;23.278;2023-06-22T03:31:41;18.83;;;10.90;;
21878;SDS011;27908;42.708;23.278;2023-06-22T03:34:07;20.47;;;10.97;;
21878;SDS011;27908;42.708;23.278;2023-06-22T03:36:32;21.43;;;11.83;;
21878;SDS011;27908;42.708;23.278;2023-06-22T03:38:57;20.73;;;11.23;;
21878;SDS011;27908;42.708;23.278;2023-06-22T03:41:23;19.77;;;10.37;;
21878;SDS011;27908;42.708;23.278;2023-06-22T03:43:48;17.93;;;11.03;;
21878;SDS011;27908;42.708;23.278;2023-06-22T03:46:14;17.93;;;9.77;;
21878;SDS011;27908;42.708;23.278;2023-06-22T03:48:39;17.47;;;9.93;;
21878;SDS011;27908;42.708;23.278;2023-06-22T03:51:05;19.47;;;10.30;;
21878;SDS011;27908;42.708;23.278;2023-06-22T03:53:30;16.60;;;10.50;;
21878;SDS011;27908;42.708;23.278;2023-06-22T03:55:56;17.87;;;10.10;;
21878;SDS011;27908;42.708;23.278;2023-06-22T03:58:22;82.20;;;43.73;;
21878;SDS011;27908;42.708;23.278;2023-06-22T04:00:48;29.50;;;15.73;;
21878;SDS011;27908;42.708;23.278;2023-06-22T04:03:14;22.73;;;13.25;;
21878;SDS011;27908;42.708;23.278;2023-06-22T04:05:41;22.10;;;11.77;;
21878;SDS011;27908;42.708;23.278;2023-06-22T04:08:07;17.43;;;10.47;;
21878;SDS011;27908;42.708;23.278;2023-06-22T04:10:32;19.92;;;10.90;;
21878;SDS011;27908;42.708;23.278;2023-06-22T04:12:58;22.23;;;12.67;;
21878;SDS011;27908;42.708;23.278;2023-06-22T04:15:23;20.23;;;11.53;;
21878;SDS011;27908;42.708;23.278;2023-06-22T04:17:49;26.23;;;13.23;;
21878;SDS011;27908;42.708;23.278;2023-06-22T04:20:14;23.63;;;13.20;;
21878;SDS011;27908;42.708;23.278;2023-06-22T04:22:39;20.90;;;12.47;;
21878;SDS011;27908;42.708;23.278;2023-06-22T04:25:05;20.30;;;12.40;;
21878;SDS011;27908;42.708;23.278;2023-06-22T04:27:32;22.30;;;12.93;;
21878;SDS011;27908;42.708;23.278;2023-06-22T04:30:04;23.58;;;12.77;;
21878;SDS011;27908;42.708;23.278;2023-06-22T04:32:34;19.88;;;11.60;;
21878;SDS011;27908;42.708;23.278;2023-06-22T04:35:01;21.10;;;11.88;;
21878;SDS011;27908;42.708;23.278;2023-06-22T04:37:29;21.13;;;12.20;;
21878;SDS011;27908;42.708;23.278;2023-06-22T04:39:55;20.63;;;11.47;;
21878;SDS011;27908;42.708;23.278;2023-06-22T04:42:20;33.43;;;27.40;;
21878;SDS011;27908;42.708;23.278;2023-06-22T04:44:46;23.17;;;15.65;;
21878;SDS011;27908;42.708;23.278;2023-06-22T04:47:11;18.47;;;10.77;;
21878;SDS011;27908;42.708;23.278;2023-06-22T04:49:37;21.77;;;11.60;;
21878;SDS011;27908;42.708;23.278;2023-06-22T04:52:03;20.43;;;10.67;;
21878;SDS011;27908;42.708;23.278;2023-06-22T04:54:33;18.52;;;10.43;;
21878;SDS011;27908;42.708;23.278;2023-06-22T04:57:02;16.67;;;10.85;;
21878;SDS011;27908;42.708;23.278;2023-06-22T04:59:30;16.80;;;10.32;;
21878;SDS011;27908;42.708;23.278;2023-06-22T05:04:23;16.47;;;10.60;;
21878;SDS011;27908;42.708;23.278;2023-06-22T05:06:49;17.42;;;10.45;;
21878;SDS011;27908;42.708;23.278;2023-06-22T05:09:15;18.00;;;10.75;;
21878;SDS011;27908;42.708;23.278;2023-06-22T05:11:42;17.92;;;11.55;;
21878;SDS011;27908;42.708;23.278;2023-06-22T05:14:08;17.00;;;10.37;;
21878;SDS011;27908;42.708;23.278;2023-06-22T05:16:33;17.23;;;10.32;;
21878;SDS011;27908;42.708;23.278;2023-06-22T05:18:59;15.50;;;10.60;;
21878;SDS011;27908;42.708;23.278;2023-06-22T05:21:25;17.23;;;10.48;;
21878;SDS011;27908;42.708;23.278;2023-06-22T05:23:52;20.00;;;10.80;;
21878;SDS011;27908;42.708;23.278;2023-06-22T05:26:18;18.52;;;10.02;;
21878;SDS011;27908;42.708;23.278;2023-06-22T05:28:45;17.35;;;10.50;;
21878;SDS011;27908;42.708;23.278;2023-06-22T05:31:14;16.17;;;9.77;;
21878;SDS011;27908;42.708;23.278;2023-06-22T05:33:41;17.05;;;10.40;;
21878;SDS011;27908;42.708;23.278;2023-06-22T05:36:07;15.43;;;10.27;;
21878;SDS011;27908;42.708;23.278;2023-06-22T05:38:32;18.67;;;10.63;;
21878;SDS011;27908;42.708;23.278;2023-06-22T05:40:58;18.10;;;11.13;;
21878;SDS011;27908;42.708;23.278;2023-06-22T05:43:23;19.77;;;11.23;;
21878;SDS011;27908;42.708;23.278;2023-06-22T05:45:49;20.23;;;11.32;;
21878;SDS011;27908;42.708;23.278;2023-06-22T05:48:14;18.83;;;11.33;;
21878;SDS011;27908;42.708;23.278;2023-06-22T05:50:39;22.27;;;10.97;;
21878;SDS011;27908;42.708;23.278;2023-06-22T05:53:05;18.37;;;11.00;;
21878;SDS011;27908;42.708;23.278;2023-06-22T05:55:32;17.63;;;10.65;;
21878;SDS011;27908;42.708;23.278;2023-06-22T05:57:57;18.10;;;11.90;;
21878;SDS011;27908;42.708;23.278;2023-06-22T06:00:23;19.87;;;10.97;;
21878;SDS011;27908;42.708;23.278;2023-06-22T06:02:49;17.85;;;11.15;;
21878;SDS011;27908;42.708;23.278;2023-06-22T06:05:14;18.37;;;10.83;;
21878;SDS011;27908;42.708;23.278;2023-06-22T06:07:40;18.52;;;11.48;;
21878;SDS011;27908;42.708;23.278;2023-06-22T06:10:06;19.80;;;11.67;;
21878;SDS011;27908;42.708;23.278;2023-06-22T06:12:32;17.63;;;11.38;;
21878;SDS011;27908;42.708;23.278;2023-06-22T06:14:58;20.73;;;12.50;;
21878;SDS011;27908;42.708;23.278;2023-06-22T06:17:23;18.97;;;11.97;;
21878;SDS011;27908;42.708;23.278;2023-06-22T06:19:49;22.63;;;12.67;;
21878;SDS011;27908;42.708;23.278;2023-06-22T06:22:14;19.90;;;12.40;;
21878;SDS011;27908;42.708;23.278;2023-06-22T06:24:40;19.63;;;11.33;;
21878;SDS011;27908;42.708;23.278;2023-06-22T06:27:05;25.30;;;12.07;;
21878;SDS011;27908;42.708;23.278;2023-06-22T06:29:34;20.37;;;11.33;;
21878;SDS011;27908;42.708;23.278;2023-06-22T06:31:59;21.58;;;12.73;;
21878;SDS011;27908;42.708;23.278;2023-06-22T06:34:24;22.10;;;10.93;;
21878;SDS011;27908;42.708;23.278;2023-06-22T06:36:50;19.63;;;12.07;;
21878;SDS011;27908;42.708;23.278;2023-06-22T06:39:16;21.02;;;12.07;;
21878;SDS011;27908;42.708;23.278;2023-06-22T06:41:41;21.43;;;12.37;;
21878;SDS011;27908;42.708;23.278;2023-06-22T06:44:07;17.80;;;11.25;;
21878;SDS011;27908;42.708;23.278;2023-06-22T06:46:32;19.40;;;10.70;;
21878;SDS011;27908;42.708;23.278;2023-06-22T06:48:58;21.50;;;11.40;;
21878;SDS011;27908;42.708;23.278;2023-06-22T06:51:23;19.70;;;10.60;;
21878;SDS011;27908;42.708;23.278;2023-06-22T06:53:49;19.00;;;10.88;;
21878;SDS011;27908;42.708;23.278;2023-06-22T06:56:14;20.13;;;10.93;;
21878;SDS011;27908;42.708;23.278;2023-06-22T06:58:41;20.02;;;10.85;;
21878;SDS011;27908;42.708;23.278;2023-06-22T07:01:10;18.17;;;10.48;;
21878;SDS011;27908;42.708;23.278;2023-06-22T07:03:36;17.67;;;10.07;;
21878;SDS011;27908;42.708;23.278;2023-06-22T07:06:02;17.27;;;10.17;;
21878;SDS011;27908;42.708;23.278;2023-06-22T07:08:27;17.57;;;9.70;;
21878;SDS011;27908;42.708;23.278;2023-06-22T07:10:53;15.50;;;10.68;;
21878;SDS011;27908;42.708;23.278;2023-06-22T07:13:19;19.00;;;10.63;;
21878;SDS011;27908;42.708;23.278;2023-06-22T07:15:44;16.88;;;10.20;;
21878;SDS011;27908;42.708;23.278;2023-06-22T07:18:10;16.97;;;10.33;;
21878;SDS011;27908;42.708;23.278;2023-06-22T07:20:35;18.90;;;9.40;;
21878;SDS011;27908;42.708;23.278;2023-06-22T07:23:01;15.60;;;9.87;;
21878;SDS011;27908;42.708;23.278;2023-06-22T07:25:26;18.60;;;10.00;;
21878;SDS011;27908;42.708;23.278;2023-06-22T07:30:24;18.10;;;10.20;;
21878;SDS011;27908;42.708;23.278;2023-06-22T07:32:49;17.80;;;10.25;;
21878;SDS011;27908;42.708;23.278;2023-06-22T07:35:15;18.67;;;10.10;;
21878;SDS011;27908;42.708;23.278;2023-06-22T07:37:41;21.55;;;9.73;;
21878;SDS011;27908;42.708;23.278;2023-06-22T07:40:07;16.77;;;10.53;;
21878;SDS011;27908;42.708;23.278;2023-06-22T07:42:33;16.40;;;8.97;;
21878;SDS011;27908;42.708;23.278;2023-06-22T07:44:59;14.63;;;8.63;;
21878;SDS011;27908;42.708;23.278;2023-06-22T07:47:24;14.83;;;8.03;;
21878;SDS011;27908;42.708;23.278;2023-06-22T07:49:53;15.98;;;9.45;;
21878;SDS011;27908;42.708;23.278;2023-06-22T07:52:20;15.63;;;9.35;;
21878;SDS011;27908;42.708;23.278;2023-06-22T07:54:46;16.20;;;9.90;;
21878;SDS011;27908;42.708;23.278;2023-06-22T07:59:59;16.20;;;8.93;;
21878;SDS011;27908;42.708;23.278;2023-06-22T08:02:25;15.68;;;9.02;;
21878;SDS011;27908;42.708;23.278;2023-06-22T08:04:51;16.93;;;8.87;;
21878;SDS011;27908;42.708;23.278;2023-06-22T08:07:17;14.73;;;9.55;;
21878;SDS011;27908;42.708;23.278;2023-06-22T08:09:47;15.15;;;8.98;;
21878;SDS011;27908;42.708;23.278;2023-06-22T08:12:14;14.67;;;8.87;;
21878;SDS011;27908;42.708;23.278;2023-06-22T08:14:39;16.13;;;9.57;;
21878;SDS011;27908;42.708;23.278;2023-06-22T08:17:07;14.68;;;9.18;;
21878;SDS011;27908;42.708;23.278;2023-06-22T08:19:32;16.00;;;9.33;;
21878;SDS011;27908;42.708;23.278;2023-06-22T08:21:58;15.70;;;9.63;;
21878;SDS011;27908;42.708;23.278;2023-06-22T08:24:23;14.02;;;9.48;;
21878;SDS011;27908;42.708;23.278;2023-06-22T08:26:51;14.97;;;9.60;;
21878;SDS011;27908;42.708;23.278;2023-06-22T08:29:17;14.88;;;9.38;;
21878;SDS011;27908;42.708;23.278;2023-06-22T08:31:42;13.47;;;9.03;;
21878;SDS011;27908;42.708;23.278;2023-06-22T08:34:08;14.15;;;9.00;;
21878;SDS011;27908;42.708;23.278;2023-06-22T08:36:33;13.93;;;8.77;;
21878;SDS011;27908;42.708;23.278;2023-06-22T08:39:06;15.13;;;9.00;;
21878;SDS011;27908;42.708;23.278;2023-06-22T08:41:31;13.83;;;8.90;;
21878;SDS011;27908;42.708;23.278;2023-06-22T08:43:57;13.47;;;8.70;;
21878;SDS011;27908;42.708;23.278;2023-06-22T08:46:23;15.13;;;9.23;;
21878;SDS011;27908;42.708;23.278;2023-06-22T08:48:55;14.90;;;8.70;;
21878;SDS011;27908;42.708;23.278;2023-06-22T08:51:22;14.73;;;9.50;;
21878;SDS011;27908;42.708;23.278;2023-06-22T08:53:47;14.45;;;9.60;;
21878;SDS011;27908;42.708;23.278;2023-06-22T08:56:12;13.57;;;9.50;;
21878;SDS011;27908;42.708;23.278;2023-06-22T08:58:38;15.03;;;9.30;;
21878;SDS011;27908;42.708;23.278;2023-06-22T09:01:03;15.13;;;9.10;;
21878;SDS011;27908;42.708;23.278;2023-06-22T09:03:29;14.15;;;8.52;;
21878;SDS011;27908;42.708;23.278;2023-06-22T09:05:55;13.10;;;8.80;;
21878;SDS011;27908;42.708;23.278;2023-06-22T09:08:21;12.60;;;8.90;;
21878;SDS011;27908;42.708;23.278;2023-06-22T09:10:46;14.55;;;8.90;;
21878;SDS011;27908;42.708;23.278;2023-06-22T09:13:12;14.23;;;8.87;;
21878;SDS011;27908;42.708;23.278;2023-06-22T09:15:37;13.30;;;8.83;;
21878;SDS011;27908;42.708;23.278;2023-06-22T09:18:03;15.35;;;8.27;;
21878;SDS011;27908;42.708;23.278;2023-06-22T09:20:29;14.07;;;9.00;;
21878;SDS011;27908;42.708;23.278;2023-06-22T09:22:54;13.93;;;8.73;;
21878;SDS011;27908;42.708;23.278;2023-06-22T09:25:19;14.40;;;8.98;;
21878;SDS011;27908;42.708;23.278;2023-06-22T09:27:45;15.20;;;8.30;;
21878;SDS011;27908;42.708;23.278;2023-06-22T09:30:11;13.63;;;8.18;;
21878;SDS011;27908;42.708;23.278;2023-06-22T09:32:37;13.33;;;8.07;;
21878;SDS011;27908;42.708;23.278;2023-06-22T09:35:03;12.90;;;7.80;;
21878;SDS011;27908;42.708;23.278;2023-06-22T09:37:30;13.85;;;8.00;;
21878;SDS011;27908;42.708;23.278;2023-06-22T09:39:56;12.17;;;7.97;;
21878;SDS011;27908;42.708;23.278;2023-06-22T09:42:21;12.60;;;8.03;;
21878;SDS011;27908;42.708;23.278;2023-06-22T09:44:47;12.13;;;7.60;;
21878;SDS011;27908;42.708;23.278;2023-06-22T09:47:12;11.00;;;7.23;;
21878;SDS011;27908;42.708;23.278;2023-06-22T09:49:37;12.85;;;6.75;;
21878;SDS011;27908;42.708;23.278;2023-06-22T09:52:03;12.00;;;7.30;;
21878;SDS011;27908;42.708;23.278;2023-06-22T09:54:29;12.27;;;7.33;;
21878;SDS011;27908;42.708;23.278;2023-06-22T09:56:54;13.70;;;7.57;;
21878;SDS011;27908;42.708;23.278;2023-06-22T09:59:19;13.03;;;7.60;;
21878;SDS011;27908;42.708;23.278;2023-06-22T10:01:45;11.70;;;7.33;;
21878;SDS011;27908;42.708;23.278;2023-06-22T10:04:10;12.97;;;8.10;;
21878;SDS011;27908;42.708;23.278;2023-06-22T10:06:36;11.60;;;7.80;;
21878;SDS011;27908;42.708;23.278;2023-06-22T10:09:01;12.17;;;7.77;;
21878;SDS011;27908;42.708;23.278;2023-06-22T10:11:26;12.97;;;7.33;;
21878;SDS011;27908;42.708;23.278;2023-06-22T10:13:55;12.18;;;7.40;;
21878;SDS011;27908;42.708;23.278;2023-06-22T10:16:20;13.17;;;7.80;;
21878;SDS011;27908;42.708;23.278;2023-06-22T10:18:46;13.18;;;7.75;;
21878;SDS011;27908;42.708;23.278;2023-06-22T10:21:11;23.57;;;8.63;;
21878;SDS011;27908;42.708;23.278;2023-06-22T10:23:37;13.93;;;7.57;;
21878;SDS011;27908;42.708;23.278;2023-06-22T10:26:02;13.10;;;7.27;;
21878;SDS011;27908;42.708;23.278;2023-06-22T10:28:27;14.23;;;7.78;;
21878;SDS011;27908;42.708;23.278;2023-06-22T10:30:53;12.63;;;7.30;;
21878;SDS011;27908;42.708;23.278;2023-06-22T10:33:18;14.63;;;7.80;;
21878;SDS011;27908;42.708;23.278;2023-06-22T10:35:44;12.53;;;7.50;;
21878;SDS011;27908;42.708;23.278;2023-06-22T10:38:09;12.13;;;7.13;;
21878;SDS011;27908;42.708;23.278;2023-06-22T10:40:35;11.33;;;6.57;;
21878;SDS011;27908;42.708;23.278;2023-06-22T10:43:00;12.43;;;7.27;;
21878;SDS011;27908;42.708;23.278;2023-06-22T10:45:26;11.23;;;6.75;;
21878;SDS011;27908;42.708;23.278;2023-06-22T10:47:52;11.63;;;7.32;;
21878;SDS011;27908;42.708;23.278;2023-06-22T10:50:18;14.50;;;7.60;;
21878;SDS011;27908;42.708;23.278;2023-06-22T10:52:43;12.07;;;7.30;;
21878;SDS011;27908;42.708;23.278;2023-06-22T10:55:09;12.75;;;7.03;;
21878;SDS011;27908;42.708;23.278;2023-06-22T10:57:35;14.77;;;7.23;;
21878;SDS011;27908;42.708;23.278;2023-06-22T11:00:01;11.85;;;7.18;;
21878;SDS011;27908;42.708;23.278;2023-06-22T11:02:30;12.07;;;7.63;;
21878;SDS011;27908;42.708;23.278;2023-06-22T11:04:56;12.05;;;7.25;;
21878;SDS011;27908;42.708;23.278;2023-06-22T11:07:25;13.07;;;7.57;;
21878;SDS011;27908;42.708;23.278;2023-06-22T11:09:52;11.57;;;7.30;;
21878;SDS011;27908;42.708;23.278;2023-06-22T11:12:18;11.52;;;6.80;;
21878;SDS011;27908;42.708;23.278;2023-06-22T11:14:43;12.27;;;7.20;;
21878;SDS011;27908;42.708;23.278;2023-06-22T11:17:08;12.40;;;7.33;;
21878;SDS011;27908;42.708;23.278;2023-06-22T11:19:34;11.33;;;7.50;;
21878;SDS011;27908;42.708;23.278;2023-06-22T11:21:59;12.63;;;7.53;;
21878;SDS011;27908;42.708;23.278;2023-06-22T11:24:25;12.07;;;7.18;;
21878;SDS011;27908;42.708;23.278;2023-06-22T11:26:50;13.10;;;7.10;;
21878;SDS011;27908;42.708;23.278;2023-06-22T11:29:16;11.77;;;6.90;;
21878;SDS011;27908;42.708;23.278;2023-06-22T11:31:41;11.33;;;7.13;;
21878;SDS011;27908;42.708;23.278;2023-06-22T11:34:08;11.60;;;7.72;;
21878;SDS011;27908;42.708;23.278;2023-06-22T11:36:33;13.73;;;6.97;;
21878;SDS011;27908;42.708;23.278;2023-06-22T11:39:00;12.68;;;7.00;;
21878;SDS011;27908;42.708;23.278;2023-06-22T11:41:26;10.83;;;6.83;;
21878;SDS011;27908;42.708;23.278;2023-06-22T11:43:51;14.20;;;6.50;;
21878;SDS011;27908;42.708;23.278;2023-06-22T11:46:16;13.40;;;7.23;;
21878;SDS011;27908;42.708;23.278;2023-06-22T11:48:42;17.47;;;7.60;;
21878;SDS011;27908;42.708;23.278;2023-06-22T11:51:08;15.63;;;8.30;;
21878;SDS011;27908;42.708;23.278;2023-06-22T11:53:33;18.67;;;8.10;;
21878;SDS011;27908;42.708;23.278;2023-06-22T11:56:00;20.63;;;8.32;;
21878;SDS011;27908;42.708;23.278;2023-06-22T11:58:26;13.60;;;7.45;;
21878;SDS011;27908;42.708;23.278;2023-06-22T12:00:51;12.60;;;8.20;;
21878;SDS011;27908;42.708;23.278;2023-06-22T12:03:17;12.57;;;7.70;;
21878;SDS011;27908;42.708;23.278;2023-06-22T12:05:43;12.82;;;8.13;;
21878;SDS011;27908;42.708;23.278;2023-06-22T12:08:08;11.83;;;7.40;;
21878;SDS011;27908;42.708;23.278;2023-06-22T12:10:34;11.82;;;7.95;;
21878;SDS011;27908;42.708;23.278;2023-06-22T12:12:59;12.57;;;7.53;;
21878;SDS011;27908;42.708;23.278;2023-06-22T12:15:25;14.70;;;8.33;;
21878;SDS011;27908;42.708;23.278;2023-06-22T12:17:51;16.65;;;8.65;;
21878;SDS011;27908;42.708;23.278;2023-06-22T12:20:17;14.50;;;9.18;;
21878;SDS011;27908;42.708;23.278;2023-06-22T12:22:43;15.75;;;9.70;;
21878;SDS011;27908;42.708;23.278;2023-06-22T12:25:09;16.67;;;9.07;;
21878;SDS011;27908;42.708;23.278;2023-06-22T12:27:35;18.20;;;9.93;;
21878;SDS011;27908;42.708;23.278;2023-06-22T12:30:01;16.45;;;10.30;;
21878;SDS011;27908;42.708;23.278;2023-06-22T12:32:27;15.43;;;8.90;;
21878;SDS011;27908;42.708;23.278;2023-06-22T12:34:52;18.13;;;8.67;;
21878;SDS011;27908;42.708;23.278;2023-06-22T12:37:18;16.83;;;7.17;;
21878;SDS011;27908;42.708;23.278;2023-06-22T12:39:43;14.65;;;6.65;;
21878;SDS011;27908;42.708;23.278;2023-06-22T12:42:09;15.97;;;6.83;;
21878;SDS011;27908;42.708;23.278;2023-06-22T12:44:37;13.13;;;6.70;;
21878;SDS011;27908;42.708;23.278;2023-06-22T12:47:03;17.33;;;6.93;;
21878;SDS011;27908;42.708;23.278;2023-06-22T12:49:29;14.25;;;8.35;;
21878;SDS011;27908;42.708;23.278;2023-06-22T12:51:54;16.83;;;5.90;;
21878;SDS011;27908;42.708;23.278;2023-06-22T12:54:20;14.57;;;6.10;;
21878;SDS011;27908;42.708;23.278;2023-06-22T12:56:45;12.43;;;6.33;;
21878;SDS011;27908;42.708;23.278;2023-06-22T12:59:10;12.70;;;6.00;;
21878;SDS011;27908;42.708;23.278;2023-06-22T13:01:36;13.50;;;6.40;;
21878;SDS011;27908;42.708;23.278;2023-06-22T13:04:02;14.90;;;6.75;;
21878;SDS011;27908;42.708;23.278;2023-06-22T13:06:27;16.43;;;7.10;;
21878;SDS011;27908;42.708;23.278;2023-06-22T13:08:53;13.63;;;7.70;;
21878;SDS011;27908;42.708;23.278;2023-06-22T13:11:18;16.77;;;6.73;;
21878;SDS011;27908;42.708;23.278;2023-06-22T13:13:44;11.43;;;6.63;;
21878;SDS011;27908;42.708;23.278;2023-06-22T13:16:10;12.02;;;6.20;;
21878;SDS011;27908;42.708;23.278;2023-06-22T13:18:36;13.87;;;6.90;;
21878;SDS011;27908;42.708;23.278;2023-06-22T13:21:02;13.03;;;6.60;;
21878;SDS011;27908;42.708;23.278;2023-06-22T13:23:27;13.52;;;6.30;;
21878;SDS011;27908;42.708;23.278;2023-06-22T13:25:53;13.27;;;5.87;;
21878;SDS011;27908;42.708;23.278;2023-06-22T13:28:18;13.37;;;6.43;;
21878;SDS011;27908;42.708;23.278;2023-06-22T13:30:45;12.48;;;6.50;;
21878;SDS011;27908;42.708;23.278;2023-06-22T13:33:12;15.27;;;6.43;;
21878;SDS011;27908;42.708;23.278;2023-06-22T13:35:41;15.20;;;7.25;;
21878;SDS011;27908;42.708;23.278;2023-06-22T13:38:09;14.60;;;7.23;;
21878;SDS011;27908;42.708;23.278;2023-06-22T13:40:35;12.57;;;7.10;;
21878;SDS011;27908;42.708;23.278;2023-06-22T13:43:03;13.95;;;7.38;;
21878;SDS011;27908;42.708;23.278;2023-06-22T13:45:29;17.85;;;9.07;;
21878;SDS011;27908;42.708;23.278;2023-06-22T13:47:54;15.17;;;7.73;;
21878;SDS011;27908;42.708;23.278;2023-06-22T13:50:19;14.40;;;7.60;;
21878;SDS011;27908;42.708;23.278;2023-06-22T13:52:45;13.97;;;7.43;;
21878;SDS011;27908;42.708;23.278;2023-06-22T13:55:10;18.80;;;8.40;;
21878;SDS011;27908;42.708;23.278;2023-06-22T13:57:36;16.77;;;7.67;;
21878;SDS011;27908;42.708;23.278;2023-06-22T14:00:03;18.33;;;7.88;;
21878;SDS011;27908;42.708;23.278;2023-06-22T14:02:30;19.27;;;7.90;;
21878;SDS011;27908;42.708;23.278;2023-06-22T14:04:56;15.67;;;7.50;;
21878;SDS011;27908;42.708;23.278;2023-06-22T14:07:21;14.63;;;7.50;;
21878;SDS011;27908;42.708;23.278;2023-06-22T14:09:47;19.00;;;8.00;;
21878;SDS011;27908;42.708;23.278;2023-06-22T14:12:13;15.40;;;7.97;;
21878;SDS011;27908;42.708;23.278;2023-06-22T14:14:38;18.67;;;8.20;;
21878;SDS011;27908;42.708;23.278;2023-06-22T14:17:04;15.67;;;8.30;;
21878;SDS011;27908;42.708;23.278;2023-06-22T14:19:30;20.58;;;8.13;;
21878;SDS011;27908;42.708;23.278;2023-06-22T14:21:55;19.70;;;8.77;;
21878;SDS011;27908;42.708;23.278;2023-06-22T14:24:22;16.15;;;8.48;;
21878;SDS011;27908;42.708;23.278;2023-06-22T14:26:47;16.65;;;8.68;;